createdAt,value
2023-11-03T00:01:14.013Z,8.17
2023-11-03T00:03:43.322Z,8.18
2023-11-03T00:06:10.688Z,8.19
2023-11-03T00:08:37.851Z,8.20
2023-11-03T00:11:06.217Z,8.20
2023-11-03T00:13:35.880Z,8.20
2023-11-03T00:16:03.578Z,8.20
2023-11-03T00:18:31.020Z,8.19
2023-11-03T00:21:00.249Z,8.19
2023-11-03T00:23:27.139Z,8.18
2023-11-03T00:25:53.920Z,8.18
2023-11-03T00:28:22.446Z,8.17
2023-11-03T00:30:48.948Z,8.16
2023-11-03T00:33:18.690Z,8.14
2023-11-03T00:35:45.301Z,8.14
2023-11-03T00:38:14.352Z,8.12
2023-11-03T00:40:43.977Z,8.12
2023-11-03T00:43:10.649Z,8.13
2023-11-03T00:45:37.288Z,8.14
2023-11-03T00:48:04.189Z,8.16
2023-11-03T00:50:30.846Z,8.17
2023-11-03T00:52:57.416Z,8.19
2023-11-03T00:55:23.944Z,8.21
2023-11-03T00:57:50.787Z,8.22
2023-11-03T01:00:18.679Z,8.23
2023-11-03T01:02:46.947Z,8.25
2023-11-03T01:05:16.959Z,8.27
2023-11-03T01:07:44.129Z,8.28
2023-11-03T01:10:16.315Z,8.30
2023-11-03T01:12:44.914Z,8.30
2023-11-03T01:15:13.508Z,8.29
2023-11-03T01:17:40.914Z,8.29
2023-11-03T01:20:14.209Z,8.30
2023-11-03T01:22:41.329Z,8.30
2023-11-03T01:25:08.699Z,8.29
2023-11-03T01:27:35.357Z,8.28
2023-11-03T01:30:01.916Z,8.27
2023-11-03T01:32:31.498Z,8.25
2023-11-03T01:34:58.446Z,8.26
2023-11-03T01:37:27.582Z,8.25
2023-11-03T01:39:55.249Z,8.25
2023-11-03T01:42:21.791Z,8.25
2023-11-03T01:44:48.290Z,8.24
2023-11-03T01:47:16.462Z,8.24
2023-11-03T01:49:43.410Z,8.25
2023-11-03T01:52:11.166Z,8.26
2023-11-03T01:54:39.472Z,8.26
2023-11-03T01:57:06.273Z,8.26
2023-11-03T01:59:35.108Z,8.27
2023-11-03T02:02:05.478Z,8.27
2023-11-03T02:04:32.040Z,8.27
2023-11-03T02:06:59.076Z,8.28
2023-11-03T02:09:25.847Z,8.28
2023-11-03T02:11:52.569Z,8.27
2023-11-03T02:14:19.338Z,8.29
2023-11-03T02:16:48.624Z,8.29
2023-11-03T02:19:16.829Z,8.30
2023-11-03T02:21:45.171Z,8.31
2023-11-03T02:24:11.823Z,8.33
2023-11-03T02:26:38.421Z,8.34
2023-11-03T02:29:06.867Z,8.36
2023-11-03T02:31:34.365Z,8.38
2023-11-03T02:34:01.342Z,8.39
2023-11-03T02:36:27.985Z,8.41
2023-11-03T02:38:55.720Z,8.42
2023-11-03T02:41:22.525Z,8.43
2023-11-03T02:43:51.322Z,8.43
2023-11-03T02:46:18.189Z,8.43
2023-11-03T02:48:45.461Z,8.44
2023-11-03T02:51:12.566Z,8.46
2023-11-03T02:53:39.116Z,8.48
2023-11-03T02:56:06.347Z,8.50
2023-11-03T02:58:38.715Z,8.52
2023-11-03T03:01:11.348Z,8.54
2023-11-03T03:03:38.046Z,8.57
2023-11-03T03:06:07.201Z,8.60
2023-11-03T03:08:33.979Z,8.62
2023-11-03T03:11:04.195Z,8.66
2023-11-03T03:13:31.476Z,8.69
2023-11-03T03:15:59.205Z,8.71
2023-11-03T03:18:26.516Z,8.74
2023-11-03T03:20:53.109Z,8.75
2023-11-03T03:23:20.055Z,8.77
2023-11-03T03:25:46.575Z,8.79
2023-11-03T03:28:13.503Z,8.82
2023-11-03T03:30:40.440Z,8.83
2023-11-03T03:33:07.362Z,8.84
2023-11-03T03:35:34.022Z,8.85
2023-11-03T03:38:00.589Z,8.86
2023-11-03T03:40:27.244Z,8.87
2023-11-03T03:42:53.968Z,8.88
2023-11-03T03:45:22.843Z,8.88
2023-11-03T03:47:49.558Z,8.90
2023-11-03T03:50:16.196Z,8.91
2023-11-03T03:52:42.745Z,8.92
2023-11-03T03:55:09.384Z,8.92
2023-11-03T03:57:36.243Z,8.94
2023-11-03T04:00:02.905Z,8.94
2023-11-03T04:02:29.560Z,8.95
2023-11-03T04:04:56.680Z,8.95
2023-11-03T04:07:23.278Z,8.96
2023-11-03T04:09:50.879Z,8.97
2023-11-03T04:12:17.659Z,8.97
2023-11-03T04:14:44.132Z,8.97
2023-11-03T04:17:10.688Z,8.97
2023-11-03T04:19:37.632Z,8.96
2023-11-03T04:22:05.260Z,8.96
2023-11-03T04:24:31.781Z,8.95
2023-11-03T04:26:58.724Z,8.94
2023-11-03T04:29:25.515Z,8.92
2023-11-03T04:31:53.412Z,8.92
2023-11-03T04:34:20.225Z,8.91
2023-11-03T04:36:46.977Z,8.91
2023-11-03T04:39:13.526Z,8.91
2023-11-03T04:41:40.106Z,8.90
2023-11-03T04:44:07.848Z,8.90
2023-11-03T04:46:34.793Z,8.89
2023-11-03T04:49:01.900Z,8.88
2023-11-03T04:51:29.000Z,8.88
2023-11-03T04:53:56.402Z,8.87
2023-11-03T04:56:23.121Z,8.88
2023-11-03T04:58:50.419Z,8.86
2023-11-03T05:01:17.822Z,8.87
2023-11-03T05:03:45.061Z,8.87
2023-11-03T05:06:12.507Z,8.86
2023-11-03T05:08:39.641Z,8.86
2023-11-03T05:11:06.318Z,8.86
2023-11-03T05:13:32.955Z,8.87
2023-11-03T05:16:02.409Z,8.87
2023-11-03T05:18:29.296Z,8.87
2023-11-03T05:20:58.410Z,8.88
2023-11-03T05:23:24.942Z,8.88
2023-11-03T05:25:51.824Z,8.88
2023-11-03T05:28:18.373Z,8.89
2023-11-03T05:30:45.326Z,8.90
2023-11-03T05:33:14.733Z,8.90
2023-11-03T05:35:42.855Z,8.90
2023-11-03T05:38:09.699Z,8.89
2023-11-03T05:40:36.181Z,8.89
2023-11-03T05:43:04.109Z,8.88
2023-11-03T05:45:30.894Z,8.86
2023-11-03T05:48:00.417Z,8.84
2023-11-03T05:50:28.868Z,8.83
2023-11-03T05:52:55.508Z,8.81
2023-11-03T05:55:22.178Z,8.79
2023-11-03T05:57:51.230Z,8.78
2023-11-03T06:00:18.142Z,8.77
2023-11-03T06:02:45.006Z,8.77
2023-11-03T06:05:13.449Z,8.77
2023-11-03T06:07:42.451Z,8.77
2023-11-03T06:10:10.490Z,8.77
2023-11-03T06:12:37.351Z,8.76
2023-11-03T06:15:05.252Z,8.75
2023-11-03T06:17:31.826Z,8.74
2023-11-03T06:19:58.528Z,8.73
2023-11-03T06:22:25.069Z,8.72
2023-11-03T06:24:51.757Z,8.69
2023-11-03T06:27:18.270Z,8.68
2023-11-03T06:29:44.939Z,8.67
2023-11-03T06:32:11.480Z,8.67
2023-11-03T06:34:38.124Z,8.68
2023-11-03T06:37:05.076Z,8.69
2023-11-03T06:39:32.040Z,8.69
2023-11-03T06:41:58.604Z,8.70
2023-11-03T06:44:28.011Z,8.70
2023-11-03T06:46:54.565Z,8.71
2023-11-03T06:49:21.136Z,8.72
2023-11-03T06:51:49.880Z,8.74
2023-11-03T06:54:16.909Z,8.74
2023-11-03T06:56:43.968Z,8.75
2023-11-03T06:59:11.443Z,8.77
2023-11-03T07:01:38.020Z,8.78
2023-11-03T07:04:07.139Z,8.80
2023-11-03T07:06:35.303Z,8.81
2023-11-03T07:09:02.101Z,8.83
2023-11-03T07:11:35.640Z,8.85
2023-11-03T07:14:05.385Z,8.87
2023-11-03T07:16:34.326Z,8.89
2023-11-03T07:19:01.422Z,8.89
2023-11-03T07:21:28.040Z,8.91
2023-11-03T07:23:54.612Z,8.92
2023-11-03T07:26:23.653Z,8.94
2023-11-03T07:28:50.132Z,8.92
2023-11-03T07:31:17.438Z,8.93
2023-11-03T07:33:44.370Z,8.95
2023-11-03T07:36:11.908Z,8.97
2023-11-03T07:38:39.087Z,8.99
2023-11-03T07:41:09.747Z,9.01
2023-11-03T07:43:40.240Z,9.05
2023-11-03T07:46:07.367Z,9.05
2023-11-03T07:48:34.127Z,9.05
2023-11-03T07:51:01.205Z,9.05
2023-11-03T07:53:28.706Z,9.09
2023-11-03T07:55:56.560Z,9.15
2023-11-03T07:58:23.776Z,9.20
2023-11-03T08:00:51.242Z,9.25
2023-11-03T08:03:19.292Z,9.31
2023-11-03T08:05:46.275Z,9.35
2023-11-03T08:08:17.160Z,9.38
2023-11-03T08:10:43.965Z,9.38
2023-11-03T08:13:11.681Z,9.39
2023-11-03T08:15:39.137Z,9.40
2023-11-03T08:18:09.622Z,9.41
2023-11-03T08:20:36.274Z,9.45
2023-11-03T08:23:02.840Z,9.48
2023-11-03T08:25:33.436Z,9.49
2023-11-03T08:28:00.933Z,9.52
2023-11-03T08:30:28.285Z,9.59
2023-11-03T08:32:58.225Z,9.64
2023-11-03T08:35:26.277Z,9.72
2023-11-03T08:37:56.570Z,9.77
2023-11-03T08:40:23.716Z,9.83
2023-11-03T08:42:53.320Z,9.89
2023-11-03T08:45:25.447Z,9.94
2023-11-03T08:47:52.947Z,9.97
2023-11-03T08:50:19.755Z,10.02
2023-11-03T08:52:48.514Z,10.09
2023-11-03T08:55:16.227Z,10.17
2023-11-03T08:57:43.430Z,10.26
2023-11-03T09:00:17.257Z,10.34
2023-11-03T09:02:49.724Z,10.39
2023-11-03T09:05:16.542Z,10.45
2023-11-03T09:07:45.145Z,10.53
2023-11-03T09:10:14.952Z,10.60
2023-11-03T09:12:42.179Z,10.68
2023-11-03T09:15:09.781Z,10.76
2023-11-03T09:17:37.420Z,10.84
2023-11-03T09:20:08.583Z,10.91
2023-11-03T09:22:37.196Z,10.99
2023-11-03T09:25:07.524Z,11.02
2023-11-03T09:27:35.142Z,11.06
2023-11-03T09:30:06.369Z,11.13
2023-11-03T09:32:33.570Z,11.20
2023-11-03T09:35:01.317Z,11.28
2023-11-03T09:37:28.102Z,11.31
2023-11-03T09:39:55.732Z,11.27
2023-11-03T09:42:25.759Z,11.23
2023-11-03T09:44:52.782Z,11.15
2023-11-03T09:47:19.343Z,11.14
2023-11-03T09:49:47.298Z,11.16
2023-11-03T09:52:15.561Z,11.23
2023-11-03T09:54:43.300Z,11.21
2023-11-03T09:57:12.609Z,11.20
2023-11-03T09:59:41.074Z,11.23
2023-11-03T10:02:21.923Z,11.29
2023-11-03T10:04:48.611Z,11.30
2023-11-03T10:07:17.872Z,11.24
2023-11-03T10:09:44.963Z,11.19
2023-11-03T10:12:13.639Z,11.17
2023-11-03T10:14:40.601Z,11.16
2023-11-03T10:17:09.170Z,11.13
2023-11-03T10:19:36.517Z,11.13
2023-11-03T10:22:10.405Z,11.12
2023-11-03T10:24:40.115Z,11.12
2023-11-03T10:27:07.767Z,11.17
2023-11-03T10:29:34.436Z,11.11
2023-11-03T10:32:02.236Z,11.05
2023-11-03T10:34:29.306Z,11.16
2023-11-03T10:36:58.550Z,11.30
2023-11-03T10:39:29.416Z,11.49
2023-11-03T10:42:03.742Z,11.53
2023-11-03T10:44:32.979Z,11.58
2023-11-03T10:47:06.191Z,11.70
2023-11-03T10:49:39.085Z,11.84
2023-11-03T10:52:12.428Z,11.91
2023-11-03T10:55:03.157Z,11.90
2023-11-03T10:57:39.787Z,11.78
2023-11-03T11:00:27.766Z,11.65
2023-11-03T11:03:27.260Z,11.49
2023-11-03T11:06:09.358Z,11.29
2023-11-03T11:08:40.169Z,11.13
2023-11-03T11:11:08.200Z,11.06
2023-11-03T11:13:34.837Z,11.02
2023-11-03T11:16:01.563Z,11.00
2023-11-03T11:18:32.319Z,10.95
2023-11-03T11:21:08.058Z,10.89
2023-11-03T11:23:37.249Z,10.84
2023-11-03T11:26:04.566Z,10.85
2023-11-03T11:28:42.347Z,10.90
2023-11-03T11:31:26.414Z,10.93
2023-11-03T11:34:06.628Z,10.97
2023-11-03T11:36:34.832Z,11.03
2023-11-03T11:39:07.633Z,11.04
2023-11-03T11:41:36.433Z,11.09
2023-11-03T11:44:03.944Z,11.28
2023-11-03T11:46:32.429Z,12.07
2023-11-03T11:49:03.667Z,13.07
2023-11-03T11:51:32.811Z,14.28
2023-11-03T11:54:01.845Z,15.18
2023-11-03T11:56:29.637Z,15.27
2023-11-03T11:58:56.924Z,14.90
2023-11-03T12:01:23.832Z,14.51
2023-11-03T12:03:53.484Z,14.16
2023-11-03T12:06:21.142Z,13.78
2023-11-03T12:08:47.685Z,13.41
2023-11-03T12:11:16.486Z,13.26
2023-11-03T12:13:44.116Z,12.97
2023-11-03T12:16:10.862Z,12.77
2023-11-03T12:18:40.266Z,12.67
2023-11-03T12:21:08.408Z,12.62
2023-11-03T12:23:38.244Z,12.62
2023-11-03T12:26:05.129Z,12.64
2023-11-03T12:28:32.584Z,12.71
2023-11-03T12:31:00.489Z,12.81
2023-11-03T12:33:27.922Z,13.12
2023-11-03T12:35:58.386Z,13.32
2023-11-03T12:38:24.943Z,13.35
2023-11-03T12:40:51.792Z,13.38
2023-11-03T12:43:20.166Z,13.29
2023-11-03T12:46:05.501Z,13.11
2023-11-03T12:48:32.978Z,12.92
2023-11-03T12:51:00.914Z,12.90
2023-11-03T12:53:28.274Z,12.89
2023-11-03T12:56:05.347Z,12.70
2023-11-03T12:58:32.103Z,12.58
2023-11-03T13:01:02.632Z,12.47
2023-11-03T13:03:31.616Z,12.39
2023-11-03T13:06:01.024Z,12.31
2023-11-03T13:08:27.971Z,12.28
2023-11-03T13:10:55.520Z,12.28
2023-11-03T13:13:22.640Z,12.40
2023-11-03T13:15:49.315Z,12.54
2023-11-03T13:18:19.180Z,12.60
2023-11-03T13:20:50.107Z,12.60
2023-11-03T13:23:17.858Z,12.62
2023-11-03T13:25:44.574Z,12.72
2023-11-03T13:28:11.380Z,13.88
2023-11-03T13:30:38.296Z,14.17
2023-11-03T13:33:04.857Z,14.17
2023-11-03T13:35:32.920Z,14.04
2023-11-03T13:37:59.675Z,14.24
2023-11-03T13:40:29.619Z,14.11
2023-11-03T13:42:56.932Z,13.82
2023-11-03T13:45:23.525Z,13.54
2023-11-03T13:47:50.364Z,13.28
2023-11-03T13:50:21.787Z,13.11
2023-11-03T13:52:50.796Z,12.96
2023-11-03T13:55:21.866Z,12.88
2023-11-03T13:57:51.156Z,12.87
2023-11-03T14:00:17.956Z,12.91
2023-11-03T14:02:45.358Z,12.89
2023-11-03T14:05:13.041Z,12.85
2023-11-03T14:07:45.216Z,12.95
2023-11-03T14:10:15.642Z,13.10
2023-11-03T14:12:45.191Z,13.20
2023-11-03T14:15:12.547Z,13.77
2023-11-03T14:17:43.559Z,14.39
2023-11-03T14:20:11.384Z,15.25
2023-11-03T14:22:38.404Z,16.77
2023-11-03T14:25:05.452Z,17.44
2023-11-03T14:27:33.068Z,17.95
2023-11-03T14:30:00.421Z,18.05
2023-11-03T14:32:28.345Z,18.07
2023-11-03T14:34:55.092Z,17.71
2023-11-03T14:37:25.510Z,17.86
2023-11-03T14:39:52.261Z,17.90
2023-11-03T14:42:19.350Z,17.74
2023-11-03T14:44:47.213Z,17.77
2023-11-03T14:47:14.205Z,17.89
2023-11-03T14:49:42.322Z,17.31
2023-11-03T14:52:10.550Z,16.48
2023-11-03T14:54:39.541Z,15.74
2023-11-03T14:57:06.254Z,15.68
2023-11-03T14:59:35.171Z,15.68
2023-11-03T15:02:04.567Z,15.38
2023-11-03T15:04:31.842Z,14.94
2023-11-03T15:06:58.663Z,14.60
2023-11-03T15:09:27.120Z,14.32
2023-11-03T15:11:54.686Z,14.03
2023-11-03T15:14:21.153Z,13.74
2023-11-03T15:16:48.452Z,13.41
2023-11-03T15:19:15.519Z,13.13
2023-11-03T15:21:42.159Z,12.91
2023-11-03T15:24:10.216Z,12.73
2023-11-03T15:26:38.222Z,12.57
2023-11-03T15:29:05.949Z,12.39
2023-11-03T15:31:32.859Z,12.18
2023-11-03T15:33:59.645Z,11.97
2023-11-03T15:36:26.779Z,11.79
2023-11-03T15:38:58.044Z,11.68
2023-11-03T15:41:29.116Z,11.53
2023-11-03T15:43:57.909Z,11.38
2023-11-03T15:46:24.851Z,11.24
2023-11-03T15:48:53.065Z,11.09
2023-11-03T15:51:24.431Z,10.98
2023-11-03T15:53:54.452Z,10.88
2023-11-03T15:56:22.586Z,10.79
2023-11-03T15:58:52.127Z,10.69
2023-11-03T16:01:19.836Z,10.59
2023-11-03T16:03:47.371Z,10.51
2023-11-03T16:06:14.671Z,10.43
2023-11-03T16:08:41.757Z,10.36
2023-11-03T16:11:10.360Z,10.30
2023-11-03T16:13:37.806Z,10.24
2023-11-03T16:16:06.723Z,10.20
2023-11-03T16:18:34.631Z,10.13
2023-11-03T16:21:01.473Z,10.07
2023-11-03T16:23:28.520Z,10.03
2023-11-03T16:25:55.851Z,9.99
2023-11-03T16:28:24.941Z,9.94
2023-11-03T16:30:51.599Z,9.90
2023-11-03T16:33:19.035Z,9.85
2023-11-03T16:35:45.686Z,9.80
2023-11-03T16:38:15.184Z,9.75
2023-11-03T16:40:44.385Z,9.70
2023-11-03T16:43:11.312Z,9.65
2023-11-03T16:45:37.937Z,9.59
2023-11-03T16:48:17.395Z,9.54
2023-11-03T16:50:50.666Z,9.50
2023-11-03T16:53:17.201Z,9.45
2023-11-03T16:55:49.183Z,9.43
2023-11-03T16:58:18.134Z,9.39
2023-11-03T17:00:45.451Z,9.36
2023-11-03T17:03:14.660Z,9.33
2023-11-03T17:05:45.475Z,9.30
2023-11-03T17:08:14.838Z,9.26
2023-11-03T17:10:41.577Z,9.23
2023-11-03T17:13:08.302Z,9.18
2023-11-03T17:15:36.070Z,9.15
2023-11-03T17:18:04.574Z,9.12
2023-11-03T17:20:31.655Z,9.09
2023-11-03T17:23:00.038Z,9.06
2023-11-03T17:25:29.302Z,9.05
2023-11-03T17:27:56.166Z,9.01
2023-11-03T17:30:25.552Z,8.97
2023-11-03T17:32:54.259Z,8.92
2023-11-03T17:35:24.762Z,8.89
2023-11-03T17:37:57.987Z,8.87
2023-11-03T17:40:26.454Z,8.85
2023-11-03T17:42:55.800Z,8.84
2023-11-03T17:45:23.227Z,8.82
2023-11-03T17:47:51.746Z,8.79
2023-11-03T17:50:22.164Z,8.76
2023-11-03T17:52:51.938Z,8.74
2023-11-03T17:55:20.829Z,8.71
2023-11-03T17:57:49.962Z,8.70
2023-11-03T18:00:19.465Z,8.69
2023-11-03T18:02:49.302Z,8.68
2023-11-03T18:05:19.861Z,8.66
2023-11-03T18:07:47.583Z,8.62
2023-11-03T18:10:14.616Z,8.58
2023-11-03T18:12:42.208Z,8.56
2023-11-03T18:15:13.523Z,8.55
2023-11-03T18:17:43.528Z,8.53
2023-11-03T18:20:14.856Z,8.50
2023-11-03T18:22:43.026Z,8.48
2023-11-03T18:25:11.064Z,8.47
2023-11-03T18:27:38.507Z,8.45
2023-11-03T18:30:11.238Z,8.43
2023-11-03T18:32:39.558Z,8.41
2023-11-03T18:35:10.102Z,8.38
2023-11-03T18:37:42.168Z,8.36
2023-11-03T18:40:14.378Z,8.32
2023-11-03T18:42:42.363Z,8.30
2023-11-03T18:45:10.228Z,8.27
2023-11-03T18:47:37.171Z,8.23
2023-11-03T18:52:36.517Z,8.18
2023-11-03T18:55:57.562Z,8.16
2023-11-03T19:00:56.851Z,8.12
2023-11-03T19:07:26.028Z,8.08
2023-11-03T19:08:27.794Z,8.05
2023-11-03T19:10:55.635Z,8.02
2023-11-03T19:13:22.401Z,8.01
2023-11-03T19:15:51.693Z,8.00
2023-11-03T19:18:18.664Z,7.98
2023-11-03T19:20:45.600Z,7.96
2023-11-03T19:23:12.169Z,7.95
2023-11-03T19:25:41.738Z,7.96
2023-11-03T19:28:12.371Z,7.95
2023-11-03T19:30:44.182Z,7.93
2023-11-03T19:33:12.156Z,7.92
2023-11-03T19:35:44.660Z,7.89
2023-11-03T19:38:12.543Z,7.88
2023-11-03T19:40:40.928Z,7.87
2023-11-03T19:43:08.148Z,7.87
2023-11-03T19:45:34.682Z,7.87
2023-11-03T19:48:04.198Z,7.87
2023-11-03T19:50:33.610Z,7.86
2023-11-03T19:53:00.313Z,7.86
2023-11-03T19:55:26.881Z,7.85
2023-11-03T19:57:53.421Z,7.83
2023-11-03T20:00:21.947Z,7.82
2023-11-03T20:02:49.793Z,7.81
2023-11-03T20:05:17.491Z,7.81
2023-11-03T20:07:44.750Z,7.80
2023-11-03T20:10:11.314Z,7.80
2023-11-03T20:12:39.105Z,7.79
2023-11-03T20:15:07.423Z,7.79
2023-11-03T20:17:37.436Z,7.78
2023-11-03T20:20:05.083Z,7.79
2023-11-03T20:22:31.630Z,7.79
2023-11-03T20:24:58.438Z,7.79
2023-11-03T20:27:27.175Z,7.79
2023-11-03T20:29:53.986Z,7.79
2023-11-03T20:32:22.818Z,7.80
2023-11-03T20:34:49.362Z,7.80
2023-11-03T20:37:15.894Z,7.79
2023-11-03T20:39:42.426Z,7.79
2023-11-03T20:42:10.604Z,7.79
2023-11-03T20:44:38.237Z,7.78
2023-11-03T20:47:07.011Z,7.77
2023-11-03T20:49:34.462Z,7.77
2023-11-03T20:52:01.128Z,7.78
2023-11-03T20:54:29.248Z,7.78
2023-11-03T20:56:55.911Z,7.77
2023-11-03T20:59:24.650Z,7.77
2023-11-03T21:01:52.235Z,7.78
2023-11-03T21:04:23.521Z,7.78
2023-11-03T21:06:50.857Z,7.77
2023-11-03T21:09:21.934Z,7.77
2023-11-03T21:11:50.728Z,7.77
2023-11-03T21:14:20.154Z,7.75
2023-11-03T21:16:46.769Z,7.73
2023-11-03T21:19:13.651Z,7.73
2023-11-03T21:21:43.037Z,7.72
2023-11-03T21:24:11.790Z,7.71
2023-11-03T21:26:38.557Z,7.71
2023-11-03T21:29:09.465Z,7.71
2023-11-03T21:31:36.118Z,7.71
2023-11-03T21:34:03.437Z,7.71
2023-11-03T21:36:30.059Z,7.70
2023-11-03T21:38:59.658Z,7.69
2023-11-03T21:41:26.424Z,7.68
2023-11-03T21:43:53.907Z,7.67
2023-11-03T21:46:25.858Z,7.66
2023-11-03T21:48:53.483Z,7.66
2023-11-03T21:51:21.026Z,7.65
2023-11-03T21:53:49.283Z,7.64
2023-11-03T21:56:16.154Z,7.63
2023-11-03T21:58:45.481Z,7.61
2023-11-03T22:01:12.394Z,7.60
2023-11-03T22:03:39.220Z,7.59
2023-11-03T22:06:07.143Z,7.58
2023-11-03T22:08:34.623Z,7.56
2023-11-03T22:11:01.278Z,7.54
2023-11-03T22:13:28.235Z,7.53
2023-11-03T22:15:55.660Z,7.52
2023-11-03T22:18:22.536Z,7.52
2023-11-03T22:20:52.404Z,7.53
2023-11-03T22:23:21.685Z,7.55
2023-11-03T22:25:48.887Z,7.55
2023-11-03T22:28:15.672Z,7.57
2023-11-03T22:30:42.373Z,7.58
2023-11-03T22:33:12.823Z,7.58
2023-11-03T22:35:42.144Z,7.59
2023-11-03T22:38:09.919Z,7.58
2023-11-03T22:40:36.583Z,7.56
2023-11-03T22:43:03.144Z,7.52
2023-11-03T22:45:29.867Z,7.48
2023-11-03T22:47:57.272Z,7.45
2023-11-03T22:50:25.468Z,7.42
2023-11-03T22:52:52.007Z,7.40
2023-11-03T22:55:19.333Z,7.38
2023-11-03T22:57:46.086Z,7.35
2023-11-03T23:00:14.255Z,7.32
2023-11-03T23:02:41.551Z,7.30
2023-11-03T23:05:08.735Z,7.27
2023-11-03T23:07:35.519Z,7.26
2023-11-03T23:10:03.506Z,7.24
2023-11-03T23:12:30.895Z,7.23
2023-11-03T23:14:57.518Z,7.22
2023-11-03T23:17:24.607Z,7.19
2023-11-03T23:19:51.260Z,7.17
2023-11-03T23:22:17.876Z,7.15
2023-11-03T23:24:44.426Z,7.13
2023-11-03T23:27:11.303Z,7.11
2023-11-03T23:29:37.972Z,7.10
2023-11-03T23:32:05.780Z,7.09
2023-11-03T23:34:32.524Z,7.08
2023-11-03T23:37:01.513Z,7.06
2023-11-03T23:39:28.499Z,7.05
2023-11-03T23:41:54.994Z,7.02
2023-11-03T23:44:21.538Z,7.03
2023-11-03T23:46:50.211Z,7.05
2023-11-03T23:49:16.844Z,7.09
2023-11-03T23:51:43.656Z,7.13
2023-11-03T23:54:10.312Z,7.17
2023-11-03T23:56:36.992Z,7.21
2023-11-03T23:59:03.677Z,7.25
